Flight Track Log - Related Links

Times and Time Zones

All times are in EDT time to prevent confusion due to time zone crossing. See the DAL1205 flight status page for this flight to view local times or setup timezone preferences in your user account.

Time Position Orientation Groundspeed Altitude Reporting Facility
EDT Latitude Longitude Course Direction KTS MPH feet Rate Location/Type
Wed 07:13:44 PM 33.6667 -84.3333 347° North 257 296 3,300  Level Atlanta TRACON
Wed 07:14:44 PM 33.7167 -84.2667 48° Northeast 293 337 5,800 2,400 Climbing Atlanta TRACON
Wed 07:15:44 PM 33.8000 -84.2667 360° North 306 352 8,100 1,893 Climbing Atlanta TRACON
Wed 07:17:51 PM 33.9711 -84.3669 334° Northwest 349 402 11,700 1,925 Climbing Atlanta Center
Wed 07:18:51 PM 34.0650 -84.4225 334° Northwest 363 418 14,100 2,150 Climbing Atlanta Center
Wed 07:19:00 PM 34.1583 -84.5547 347° North  Level FlightAware Approximate
Wed 07:19:51 PM 34.1567 -84.4831 331° Northwest 367 422 16,000  Level Atlanta Center
Wed 07:20:51 PM 34.2461 -84.5589 325° Northwest 387 445 17,800 1,850 Climbing Atlanta Center
Wed 07:21:51 PM 34.3292 -84.6450 319° Northwest 392 451 19,700 1,800 Climbing Atlanta Center
Wed 07:22:51 PM 34.4225 -84.7339 322° Northwest 392 451 21,400 1,650 Climbing Atlanta Center
Wed 07:23:51 PM 34.5119 -84.8203 321° Northwest 399 459 23,000 1,300 Climbing Atlanta Center
Wed 07:24:51 PM 34.6072 -84.8969 326° Northwest 399 459 24,000 500 Climbing Atlanta Center
Wed 07:25:51 PM 34.7092 -84.9686 330° Northwest 417 480 24,000  Level Atlanta Center
Wed 07:27:44 PM 34.8997 -85.0931 332° Northwest 430 495 24,000  Level Memphis Center
Wed 07:28:44 PM 34.9933 -85.1836 322° Northwest 435 501 24,000  Level Memphis Center
Wed 07:29:44 PM 35.0769 -85.2928 313° West 415 478 24,000  Level Memphis Center
Wed 07:30:44 PM 35.1483 -85.4078 307° West 415 478 24,000  Level Memphis Center
Wed 07:31:44 PM 35.2317 -85.5094 315° West 420 483 24,000  Level Memphis Center
Wed 07:32:44 PM 35.2975 -85.5922 314° West 425 489 24,000 -950 Level Memphis Center
Wed 07:33:44 PM 35.4003 -85.7136 316° Northwest 425 489 22,100 -2,350 Descending Memphis Center
Wed 07:34:44 PM 35.4850 -85.8058 318° Northwest 420 483 19,300 -2,900 Descending Memphis Center
Wed 07:35:44 PM 35.5633 -85.9011 315° West 407 468 16,300 -2,850 Descending Memphis Center
Wed 07:36:44 PM 35.6392 -85.9811 319° Northwest 401 461 13,600 -2,500 Descending Memphis Center
Wed 07:37:44 PM 35.7136 -86.0769 314° West 390 449 11,300 -1,250 Descending Memphis Center
Wed 07:38:44 PM 35.7792 -86.1708 311° West 376 433 11,100 -100 Descending Memphis Center
Wed 07:39:44 PM 35.8450 -86.2622 312° West 363 418 11,100  Level Memphis Center
Wed 07:40:44 PM 35.9150 -86.3639 310° West 358 412 11,100 -500 Level Memphis Center
Wed 07:41:44 PM 35.9803 -86.4556 311° West 358 412 10,100 -950 Descending Memphis Center
Wed 07:42:44 PM 36.0350 -86.5375 310° West 333 383 9,200 -1,250 Descending Memphis Center
Wed 07:43:44 PM 36.1031 -86.5833 331° Northwest 277 319 7,600 -1,650 Descending Memphis Center
Wed 07:44:44 PM 36.1814 -86.5461 21° North 269 310 5,900 -1,500 Descending Memphis Center
Wed 07:45:44 PM 36.2575 -86.5194 16° North 286 329 4,600 -1,200 Descending Memphis Center
Wed 07:46:44 PM 36.3086 -86.5481 336° Northwest 200 230 3,500 -750 Descending Memphis Center
Wed 07:47:44 PM 36.3000 -86.6128 261° West 171 197 3,100 -250 Descending Memphis Center
Wed 07:48:44 PM 36.2569 -86.6328 201° Southwest 135 155 3,000 -500 Descending Memphis Center
Wed 07:49:44 PM 36.2094 -86.6503 197° South 162 186 2,100 -800 Descending Memphis Center
Wed 07:50:44 PM 36.1767 -86.6647 200° South 163 188 1,400 -700 Descending Memphis Center
Wed 07:53:00 PM 36.1167 -86.6667 248° West  Level FlightAware Approximate
Wed 08:00:00 PM 36.1245 -86.6782 248° West  Level Estimated

Login

Don't have an account? Register now (free) for customized features, flight alerts, and more!